Time;durP1;ratioP1;P1;durP2;ratioP2;P2;SDS_P1;SDS_P2;PMS_P1;PMS_P2;Temp;Humidity;BMP_temperature;BMP_pressure;BME280_temperature;BME280_humidity;BME280_pressure;Samples;Min_cycle;Max_cycle;Signal;HPM_P1;HPM_P2
2023/06/20 00:00:12;;;;;;;7.10;6.40;;;;;;;19.91;69.72;101241.91;5020770;28;20048;-81
2023/06/20 00:02:38;;;;;;;7.82;6.80;;;;;;;19.88;69.44;101239.47;5039166;28;20336;-81
2023/06/20 00:05:04;;;;;;;10.57;7.50;;;;;;;19.88;69.84;101247.44;5057516;28;20304;-81
2023/06/20 00:07:30;;;;;;;10.55;7.45;;;;;;;19.86;69.65;101236.06;5058283;28;20048;-81
2023/06/20 00:09:55;;;;;;;10.40;7.15;;;;;;;19.85;69.67;101235.25;5057168;28;20049;-81
2023/06/20 00:12:21;;;;;;;13.13;7.32;;;;;;;19.85;69.95;101240.56;5058278;28;20311;-80
2023/06/20 00:14:46;;;;;;;8.02;7.25;;;;;;;19.83;70.03;101244.28;5056086;28;20044;-81
2023/06/20 00:17:13;;;;;;;12.68;7.35;;;;;;;19.82;70.06;101240.78;5018435;28;20348;-81
2023/06/20 00:53:17;;;;;;;10.32;7.38;;;;;;;19.73;70.41;101217.53;5037168;28;20044;-81
2023/06/20 00:55:43;;;;;;;10.00;7.22;;;;;;;19.73;70.32;101223.69;5036771;28;20033;-81
2023/06/20 00:58:08;;;;;;;7.43;6.72;;;;;;;19.74;70.60;101219.25;5036932;28;20041;-80
2023/06/20 01:03:56;;;;;;;10.55;6.88;;;;;;;19.73;70.36;101215.72;4994639;23;20070;-82
2023/06/20 01:06:42;;;;;;;8.65;7.68;;;;;;;19.73;70.13;101206.91;4994188;28;20333;-82
2023/06/20 01:09:31;;;;;;;10.20;7.25;;;;;;;19.73;70.04;101214.88;4998135;28;20105;-82
2023/06/20 01:12:02;;;;;;;7.57;6.88;;;;;;;19.73;70.01;101217.53;4998426;28;20034;-82
2023/06/20 01:15:01;;;;;;;10.05;6.72;;;;;;;19.72;69.79;101210.50;4998473;28;20125;-82
2023/06/20 01:17:48;;;;;;;7.40;6.70;;;;;;;19.70;69.86;101207.97;4980631;28;20030;-82
2023/06/20 01:20:43;;;;;;;8.25;6.45;;;;;;;19.70;69.71;101212.41;4981081;28;20065;-82
2023/06/20 01:23:13;;;;;;;7.70;6.85;;;;;;;19.69;69.62;101211.56;4980383;28;20309;-82
2023/06/20 01:25:59;;;;;;;6.65;6.05;;;;;;;19.67;69.19;101208.16;4998168;28;20038;-82
2023/06/20 01:28:46;;;;;;;10.60;7.05;;;;;;;19.66;68.91;101200.31;4998175;28;20044;-82
2023/06/20 01:31:14;;;;;;;9.10;6.28;;;;;;;19.65;69.07;101196.81;4998188;28;20034;-82
2023/06/20 01:33:51;;;;;;;;;;;;;;;19.64;69.29;101192.44;4998694;28;20022;-82
2023/06/20 01:43:00;;;;;;;5.82;5.25;;;;;;;19.63;69.21;101189.91;4995860;28;20073;-82
2023/06/20 01:45:32;;;;;;;8.57;5.68;;;;;;;19.61;69.12;101184.72;4997536;28;20046;-82
2023/06/20 01:48:00;;;;;;;7.40;6.38;;;;;;;19.60;69.09;101185.66;4981049;28;20026;-82
2023/06/20 01:50:29;;;;;;;6.68;6.00;;;;;;;19.60;69.12;101188.31;4999387;28;20327;-82
2023/06/20 01:52:56;;;;;;;6.30;5.68;;;;;;;19.58;69.39;101182.28;5016861;28;20038;-82
2023/06/20 01:55:24;;;;;;;8.40;5.70;;;;;;;19.56;69.35;101178.91;5017057;28;20129;-82
2023/06/20 01:57:51;;;;;;;6.28;5.78;;;;;;;19.53;69.62;101182.59;5016520;28;20280;-82
2023/06/20 02:00:17;;;;;;;7.20;6.07;;;;;;;19.53;69.62;101181.75;5016517;28;20045;-82
2023/06/20 02:02:44;;;;;;;6.22;5.63;;;;;;;19.52;69.63;101175.63;4999244;28;20029;-82
2023/06/20 02:05:13;;;;;;;6.75;5.93;;;;;;;19.49;69.77;101173.16;4997017;28;20061;-82
2023/06/20 02:07:39;;;;;;;8.10;5.53;;;;;;;19.47;69.64;101172.44;4979769;28;20030;-82
2023/06/20 02:10:06;;;;;;;6.95;5.80;;;;;;;19.46;69.86;101173.38;4997137;28;20254;-82
2023/06/20 02:12:32;;;;;;;7.90;6.40;;;;;;;19.46;69.97;101169.88;4979561;28;20049;-82
2023/06/20 02:14:58;;;;;;;8.82;6.18;;;;;;;19.46;69.51;101176.03;4996994;28;20362;-82
2023/06/20 02:17:26;;;;;;;7.85;6.28;;;;;;;19.45;69.42;101173.53;4997186;28;20487;-82
2023/06/20 02:19:51;;;;;;;8.25;6.22;;;;;;;19.45;69.46;101176.19;4979202;28;20053;-82
2023/06/20 02:22:23;;;;;;;7.38;5.80;;;;;;;19.45;69.44;101189.47;4979740;28;20030;-82
2023/06/20 02:24:50;;;;;;;6.85;5.70;;;;;;;19.43;69.55;101181.59;4996891;28;20045;-82
2023/06/20 02:27:17;;;;;;;6.55;5.95;;;;;;;19.44;69.89;101174.47;4996727;28;20090;-82
2023/06/20 02:29:45;;;;;;;8.18;6.25;;;;;;;19.43;69.58;101170.09;4997023;28;20045;-82
2023/06/20 02:32:13;;;;;;;7.03;6.32;;;;;;;19.41;69.57;101172.03;4996498;28;20045;-82
2023/06/20 02:34:42;;;;;;;7.05;5.60;;;;;;;19.41;69.73;101164.94;4996767;28;20038;-82
2023/06/20 02:37:09;;;;;;;7.07;5.97;;;;;;;19.42;69.44;101168.44;4996648;28;20033;-82
2023/06/20 02:39:35;;;;;;;6.22;5.72;;;;;;;19.44;69.55;101169.16;4997282;28;20053;-82
2023/06/20 02:42:00;;;;;;;10.40;5.72;;;;;;;19.46;69.47;101161.94;4996497;28;20030;-82
2023/06/20 02:44:26;;;;;;;6.60;6.03;;;;;;;19.47;69.38;101159.16;4979012;28;20060;-82
2023/06/20 02:47:06;;;;;;;6.38;5.80;;;;;;;19.47;69.71;101150.34;4996496;28;20034;-82
2023/06/20 02:49:35;;;;;;;7.88;6.28;;;;;;;19.46;69.50;101149.47;4978786;28;20084;-82
2023/06/20 02:52:26;;;;;;;6.50;5.95;;;;;;;19.45;69.55;101153.13;4996564;28;20073;-82
2023/06/20 02:55:07;;;;;;;6.05;5.55;;;;;;;19.44;69.61;101145.25;4996205;28;20069;-79
2023/06/20 02:57:37;;;;;;;6.95;6.30;;;;;;;19.42;69.81;101145.38;5001210;28;20396;-79
2023/06/20 03:00:08;;;;;;;6.68;6.00;;;;;;;19.41;69.79;101141.03;5001094;28;20362;-82
2023/06/20 03:02:39;;;;;;;6.63;6.00;;;;;;;19.41;69.99;101145.47;4978752;28;20026;-82
2023/06/20 03:05:09;;;;;;;6.53;5.93;;;;;;;19.40;70.11;101144.63;4969914;28;20389;-82
2023/06/20 03:07:35;;;;;;;8.75;6.20;;;;;;;19.38;70.34;101136.78;4994489;28;20093;-82
2023/06/20 03:10:04;;;;;;;6.60;6.03;;;;;;;19.37;70.66;101136.88;4995779;28;20046;-82
2023/06/20 03:12:30;;;;;;;7.15;6.53;;;;;;;19.36;70.59;101136.03;4995885;28;20306;-82
2023/06/20 03:14:55;;;;;;;8.10;6.43;;;;;;;19.35;70.41;101139.63;5008658;28;20104;-82
2023/06/20 03:17:21;;;;;;;7.15;6.45;;;;;;;19.34;70.69;101135.31;5015768;28;20037;-82
2023/06/20 03:19:46;;;;;;;6.90;6.10;;;;;;;19.33;70.52;101140.72;5004507;28;20031;-82
2023/06/20 03:22:12;;;;;;;7.70;6.45;;;;;;;19.32;70.58;101139.88;4996221;28;20045;-82
2023/06/20 03:24:37;;;;;;;7.60;6.30;;;;;;;19.33;70.52;101146.03;4996179;28;20045;-82
2023/06/20 03:27:03;;;;;;;7.80;6.43;;;;;;;19.33;70.46;101144.22;4994907;28;20030;-82
2023/06/20 03:29:28;;;;;;;6.88;6.28;;;;;;;19.33;70.84;101140.72;4978300;28;20316;-82
2023/06/20 03:31:54;;;;;;;8.98;6.32;;;;;;;19.32;70.70;101136.38;4996197;28;20433;-82
2023/06/20 03:34:19;;;;;;;6.85;6.13;;;;;;;19.33;70.62;101138.06;4996109;28;20038;-82
2023/06/20 03:36:44;;;;;;;6.75;6.13;;;;;;;19.32;70.77;101129.25;4978290;28;20022;-82
2023/06/20 03:39:10;;;;;;;8.57;6.65;;;;;;;19.32;70.65;101134.56;4978387;28;20018;-82
2023/06/20 03:41:35;;;;;;;7.35;6.65;;;;;;;19.32;70.69;101134.56;4995893;28;20054;-82
2023/06/20 03:44:01;;;;;;;8.75;6.50;;;;;;;19.33;70.90;101140.72;4978758;28;20124;-82
2023/06/20 03:46:26;;;;;;;14.82;6.78;;;;;;;19.32;70.97;101142.53;4995957;28;20034;-82
2023/06/20 03:48:51;;;;;;;6.90;6.18;;;;;;;19.33;71.02;101146.03;4995025;28;20057;-82
2023/06/20 03:51:17;;;;;;;9.05;6.80;;;;;;;19.32;71.10;101139.88;4995458;28;20363;-82
2023/06/20 03:53:43;;;;;;;7.50;6.80;;;;;;;19.32;70.98;101142.53;4978480;28;20380;-82
2023/06/20 03:56:08;;;;;;;9.65;6.63;;;;;;;19.32;71.14;101147.84;4978375;28;20042;-82
2023/06/20 03:58:34;;;;;;;6.93;6.32;;;;;;;19.34;70.81;101151.25;4978123;28;20049;-82
2023/06/20 04:00:59;;;;;;;7.15;6.43;;;;;;;19.36;70.93;101149.31;4995652;28;20034;-82
2023/06/20 04:03:24;;;;;;;8.98;6.88;;;;;;;19.36;70.72;101144.00;4995103;28;20117;-82
2023/06/20 04:05:50;;;;;;;6.85;5.78;;;;;;;19.36;70.80;101151.97;5012555;28;20221;-82
2023/06/20 04:08:15;;;;;;;7.32;6.70;;;;;;;19.39;70.82;101156.19;5015477;28;20041;-82
2023/06/20 04:10:40;;;;;;;7.03;6.32;;;;;;;19.40;70.80;101151.75;4997361;28;20315;-82
2023/06/20 04:13:06;;;;;;;6.65;5.95;;;;;;;19.41;70.69;101146.34;5015119;28;20109;-82
2023/06/20 04:15:31;;;;;;;7.03;6.18;;;;;;;19.42;70.82;101148.03;5015191;28;20038;-82
2023/06/20 04:17:57;;;;;;;6.38;5.72;;;;;;;19.43;70.82;101152.38;5015242;28;20124;-82
2023/06/20 04:20:22;;;;;;;5.47;4.97;;;;;;;19.45;70.62;101144.31;5014872;28;20207;-82
2023/06/20 04:22:47;;;;;;;6.55;5.95;;;;;;;19.46;70.88;101148.66;5016901;28;20076;-82
2023/06/20 04:25:14;;;;;;;7.07;6.47;;;;;;;19.46;71.27;101157.44;5000621;28;20038;-82
2023/06/20 04:27:39;;;;;;;7.43;6.43;;;;;;;19.45;70.72;101154.94;5018935;28;20379;-82
2023/06/20 04:30:05;;;;;;;7.30;5.78;;;;;;;19.45;70.87;101147.81;5018139;28;20030;-82
2023/06/20 04:32:31;;;;;;;8.32;6.65;;;;;;;19.46;71.00;101148.66;5018610;28;20033;-82
2023/06/20 04:34:57;;;;;;;8.90;6.07;;;;;;;19.44;71.11;101138.13;5000788;28;20042;-82
2023/06/20 04:37:22;;;;;;;7.38;6.70;;;;;;;19.43;70.98;101133.78;4981633;28;20207;-82
2023/06/20 04:39:47;;;;;;;8.13;6.80;;;;;;;19.42;70.80;101129.44;4981002;28;20038;-82
2023/06/20 04:42:13;;;;;;;7.78;6.80;;;;;;;19.41;71.10;101125.09;4999070;28;20034;-82
2023/06/20 04:44:38;;;;;;;8.65;6.68;;;;;;;19.41;70.86;101121.56;4998680;28;20042;-82
2023/06/20 04:47:04;;;;;;;8.93;6.55;;;;;;;19.42;71.03;101128.59;4980865;28;20026;-82
2023/06/20 04:49:29;;;;;;;7.38;6.68;;;;;;;19.42;71.13;101131.25;4998563;28;20041;-82
2023/06/20 04:51:57;;;;;;;8.02;7.22;;;;;;;19.42;71.47;101129.44;4998453;28;20277;-82
2023/06/20 04:54:24;;;;;;;6.95;6.35;;;;;;;19.43;71.47;101127.63;4998733;28;20044;-82
2023/06/20 04:56:49;;;;;;;8.05;7.22;;;;;;;19.44;71.53;101131.97;4998379;28;20040;-82
2023/06/20 04:59:14;;;;;;;7.72;6.90;;;;;;;19.44;71.98;101127.50;4998630;28;20061;-82
2023/06/20 05:01:40;;;;;;;8.20;7.30;;;;;;;19.44;71.71;101121.34;4998648;28;20026;-82
2023/06/20 05:04:05;;;;;;;8.93;7.05;;;;;;;19.44;71.95;101132.81;4998365;28;20046;-82
2023/06/20 05:06:31;;;;;;;10.48;7.43;;;;;;;19.46;71.80;101130.06;4980743;28;20030;-82
2023/06/20 05:08:56;;;;;;;11.95;6.78;;;;;;;19.47;72.22;101123.78;4998122;28;20042;-82
2023/06/20 05:11:21;;;;;;;10.75;7.60;;;;;;;19.47;72.41;101121.13;4997893;28;20034;-82
2023/06/20 05:13:47;;;;;;;9.63;6.95;;;;;;;19.49;72.60;101121.88;4997985;28;20449;-82
2023/06/20 05:16:12;;;;;;;10.13;7.18;;;;;;;19.49;72.65;101121.88;4998204;28;20297;-82
2023/06/20 05:18:38;;;;;;;14.00;6.80;;;;;;;19.49;72.48;101114.75;4997942;28;20045;-82
2023/06/20 05:21:03;;;;;;;10.45;6.65;;;;;;;19.49;72.42;101122.72;4997817;28;20233;-82
2023/06/20 05:23:29;;;;;;;6.68;6.18;;;;;;;19.51;72.45;101127.91;4997889;28;20594;-82
2023/06/20 05:25:54;;;;;;;7.47;6.72;;;;;;;19.52;72.39;101129.63;4977709;28;20030;-82
2023/06/20 05:28:20;;;;;;;8.48;7.57;;;;;;;19.53;72.34;101126.81;4997775;28;20109;-82
2023/06/20 05:30:46;;;;;;;8.02;7.22;;;;;;;19.54;72.63;101122.38;4997835;28;20072;-82
2023/06/20 05:33:11;;;;;;;12.40;7.72;;;;;;;19.54;72.49;101109.94;4997112;28;20084;-82
2023/06/20 05:35:37;;;;;;;9.60;6.97;;;;;;;19.54;72.19;101104.63;5007749;28;20038;-82
2023/06/20 05:38:03;;;;;;;11.20;6.90;;;;;;;19.53;72.31;101102.06;5016793;28;20389;-82
2023/06/20 05:40:29;;;;;;;9.48;7.43;;;;;;;19.55;72.18;101103.69;5016207;28;20088;-82
2023/06/20 05:42:55;;;;;;;8.55;7.70;;;;;;;19.56;72.25;101093.88;5016834;28;20100;-82
2023/06/20 05:45:21;;;;;;;9.60;7.90;;;;;;;19.56;71.97;101091.22;4991922;28;20045;-82
2023/06/20 05:47:46;;;;;;;8.40;7.60;;;;;;;19.57;72.13;101095.56;4997447;28;20077;-82
2023/06/20 05:50:12;;;;;;;7.47;6.75;;;;;;;19.57;71.94;101092.91;4997162;28;20022;-82
2023/06/20 05:52:37;;;;;;;8.48;7.60;;;;;;;19.59;72.14;101098.13;4997413;28;20034;-82
2023/06/20 05:55:04;;;;;;;8.10;7.30;;;;;;;19.61;72.59;101102.38;5001903;28;20100;-82
2023/06/20 05:57:29;;;;;;;9.55;7.75;;;;;;;19.63;72.62;101107.53;4988016;28;20076;-82
2023/06/20 05:59:55;;;;;;;8.80;7.82;;;;;;;19.67;72.52;101106.38;5011311;28;20058;-82
2023/06/20 06:02:23;;;;;;;7.93;7.13;;;;;;;19.69;72.58;101115.06;5011005;28;20038;-82
2023/06/20 06:04:49;;;;;;;9.70;7.53;;;;;;;19.72;72.59;101110.38;5013978;28;20046;-82
2023/06/20 06:07:14;;;;;;;8.55;7.10;;;;;;;19.74;72.53;101107.66;4996607;28;20038;-82
2023/06/20 06:09:40;;;;;;;10.65;8.18;;;;;;;19.75;72.73;101104.88;5004207;28;20254;-82
2023/06/20 06:12:06;;;;;;;9.90;7.68;;;;;;;19.78;72.62;101094.97;4996924;28;20034;-82
2023/06/20 06:14:31;;;;;;;9.23;8.32;;;;;;;19.80;72.68;101106.31;4996536;28;20041;-82
2023/06/20 06:16:57;;;;;;;13.15;8.73;;;;;;;19.81;72.33;101100.03;5014861;28;20038;-82
2023/06/20 06:19:22;;;;;;;7.97;7.28;;;;;;;19.82;72.55;101102.59;5015263;28;20113;-82
2023/06/20 06:21:47;;;;;;;9.48;7.80;;;;;;;19.86;72.71;101100.53;5015656;28;20045;-82
2023/06/20 06:24:13;;;;;;;10.20;8.00;;;;;;;19.88;72.58;101101.25;5016185;28;20042;-82
2023/06/20 06:26:39;;;;;;;9.57;8.52;;;;;;;19.90;72.59;101102.88;5015109;28;20244;-82
2023/06/20 06:29:04;;;;;;;9.93;8.93;;;;;;;19.93;72.85;101099.09;5016028;28;20129;-82
2023/06/20 06:31:33;;;;;;;9.48;8.40;;;;;;;19.94;72.76;101093.69;5006748;28;20066;-82
2023/06/20 06:33:59;;;;;;;;;;;;;;;19.97;72.72;101092.59;4996788;28;20038;-82
2023/06/20 06:36:25;;;;;;;8.65;7.80;;;;;;;19.99;72.83;101089.81;4994104;28;19921;-82
2023/06/20 06:38:51;;;;;;;9.40;8.55;;;;;;;20.00;73.04;101084.38;4997853;28;20048;-82
2023/06/20 06:41:18;;;;;;;15.77;9.70;;;;;;;20.02;72.76;101081.63;4994530;28;20077;-82
2023/06/20 06:43:44;;;;;;;14.13;10.00;;;;;;;20.05;72.91;101081.41;4996387;28;20034;-82
2023/06/20 06:46:09;;;;;;;11.55;9.35;;;;;;;20.07;73.10;101071.47;4996445;28;20087;-82
2023/06/20 06:48:34;;;;;;;10.88;9.77;;;;;;;20.10;73.30;101077.41;4978859;28;20594;-82
2023/06/20 06:51:01;;;;;;;10.77;9.07;;;;;;;20.14;73.60;101059.41;5005841;28;20041;-82
2023/06/20 06:53:26;;;;;;;12.32;10.27;;;;;;;20.19;73.91;101061.69;4998087;28;20347;-82
2023/06/20 06:55:52;;;;;;;15.23;10.23;;;;;;;20.23;73.15;101055.16;5015543;28;20041;-82
2023/06/20 06:58:17;;;;;;;11.98;10.27;;;;;;;20.26;73.36;101050.44;5015549;28;20037;-82
2023/06/20 07:00:42;;;;;;;13.40;10.25;;;;;;;20.29;73.17;101052.03;5009839;28;20030;-82
2023/06/20 07:03:08;;;;;;;16.77;12.00;;;;;;;20.33;73.29;101042.84;5006051;28;20014;-82
2023/06/20 07:05:34;;;;;;;13.15;10.25;;;;;;;20.36;73.52;101039.97;4997887;28;20037;-82
2023/06/20 07:07:59;;;;;;;17.63;11.32;;;;;;;20.40;73.39;101035.25;5015282;28;20048;-82
2023/06/20 07:10:25;;;;;;;16.80;11.63;;;;;;;20.45;73.10;101038.41;4997291;28;20042;-82
2023/06/20 07:12:50;;;;;;;15.35;11.70;;;;;;;20.49;73.31;101038.00;4987245;28;20043;-82
2023/06/20 07:15:16;;;;;;;13.38;11.55;;;;;;;20.54;72.96;101045.63;4986174;28;20355;-82
2023/06/20 07:17:42;;;;;;;14.13;10.63;;;;;;;20.55;72.84;101047.31;4989521;28;20101;-82
2023/06/20 07:20:09;;;;;;;14.05;10.75;;;;;;;20.59;73.35;101040.81;4986863;28;20026;-82
2023/06/20 07:22:35;;;;;;;11.05;9.95;;;;;;;20.61;73.51;101049.53;4987440;28;20329;-82
2023/06/20 07:25:00;;;;;;;11.77;10.38;;;;;;;20.64;73.55;101054.59;4967900;28;20037;-82
2023/06/20 07:27:26;;;;;;;12.43;11.23;;;;;;;20.68;74.23;101052.53;4991031;28;20045;-82
2023/06/20 07:29:51;;;;;;;11.45;10.40;;;;;;;20.73;74.23;101058.34;4989228;28;20068;-82
2023/06/20 07:32:18;;;;;;;11.73;10.63;;;;;;;20.77;74.34;101051.78;4988207;28;20431;-82
2023/06/20 07:34:43;;;;;;;11.43;10.32;;;;;;;20.84;74.37;101054.81;4985496;28;20034;-82
2023/06/20 07:37:09;;;;;;;15.68;12.07;;;;;;;20.87;74.37;101057.25;4992234;28;20226;-82
2023/06/20 07:39:39;;;;;;;12.75;10.00;;;;;;;20.93;74.00;101062.06;4987115;28;20057;-82
2023/06/20 07:42:04;;;;;;;12.18;10.27;;;;;;;20.97;74.00;101066.16;4988133;28;20345;-82
2023/06/20 07:44:29;;;;;;;9.35;8.40;;;;;;;20.99;73.86;101074.88;4990663;28;20042;-82
2023/06/20 07:46:55;;;;;;;9.68;8.77;;;;;;;21.03;74.15;101071.00;4995449;28;20415;-82
2023/06/20 07:49:20;;;;;;;10.45;9.45;;;;;;;21.07;73.96;101071.59;4976939;28;20410;-82
2023/06/20 07:51:46;;;;;;;10.77;9.77;;;;;;;21.11;74.26;101065.03;4980207;28;20030;-82
2023/06/20 07:54:14;;;;;;;12.20;10.93;;;;;;;21.15;74.29;101063.81;4996894;28;20105;-82
2023/06/20 07:56:39;;;;;;;11.65;10.50;;;;;;;21.18;74.23;101068.91;5005660;28;20049;-82
2023/06/20 07:59:04;;;;;;;13.93;10.02;;;;;;;21.23;74.76;101064.03;4999530;28;20045;-82
2023/06/20 08:01:31;;;;;;;11.23;10.05;;;;;;;21.28;75.05;101060.97;5003927;28;20030;-82
2023/06/20 08:03:56;;;;;;;8.73;7.60;;;;;;;21.31;74.35;101063.41;4992682;28;20412;-82
2023/06/20 08:06:22;;;;;;;8.15;7.45;;;;;;;21.34;74.01;101062.28;5006411;28;20042;-82
2023/06/20 08:08:47;;;;;;;7.07;6.47;;;;;;;21.36;73.63;101065.69;5004832;28;20041;-82
2023/06/20 08:11:12;;;;;;;8.40;7.38;;;;;;;21.39;73.74;101068.09;5004528;28;20041;-82
2023/06/20 08:13:38;;;;;;;7.18;6.57;;;;;;;21.43;73.92;101064.22;4985920;28;20040;-82
2023/06/20 08:16:21;;;;;;;6.35;5.93;;;;;;;21.45;73.65;101063.13;5006534;28;20034;-82
2023/06/20 08:18:47;;;;;;;6.38;5.88;;;;;;;21.49;73.40;101069.06;5013291;28;20038;-82
2023/06/20 08:21:12;;;;;;;11.13;8.93;;;;;;;21.53;73.94;101066.97;5000701;28;20097;-82
2023/06/20 08:23:37;;;;;;;11.40;10.25;;;;;;;21.62;74.28;101071.53;5003163;28;20033;-82
2023/06/20 08:26:03;;;;;;;12.93;10.75;;;;;;;21.71;74.22;101060.09;5008791;28;20105;-82
2023/06/20 08:28:28;;;;;;;10.73;9.70;;;;;;;21.78;73.70;101052.44;5001540;28;20053;-82
2023/06/20 08:30:53;;;;;;;10.88;9.30;;;;;;;21.83;73.89;101052.91;5013285;28;20236;-82
2023/06/20 08:33:20;;;;;;;12.75;9.07;;;;;;;21.88;73.77;101042.66;4987840;28;20034;-82
2023/06/20 08:35:48;;;;;;;8.60;7.55;;;;;;;21.94;73.49;101047.50;4998416;28;20038;-82
2023/06/20 08:38:14;;;;;;;7.45;6.70;;;;;;;21.98;73.20;101054.25;5006172;28;20434;-82
2023/06/20 08:40:39;;;;;;;7.53;5.80;;;;;;;21.99;73.05;101061.28;5007801;28;20432;-82
2023/06/20 08:43:05;;;;;;;5.82;5.43;;;;;;;22.01;72.91;101046.00;4997031;28;20034;-82
2023/06/20 08:45:32;;;;;;;7.25;6.55;;;;;;;22.04;73.51;101042.22;4987566;28;20034;-82
2023/06/20 08:48:00;;;;;;;6.57;5.97;;;;;;;22.11;73.37;101047.88;4998190;28;20088;-82
2023/06/20 08:50:26;;;;;;;;;;;;;;;22.14;73.05;101040.44;4983224;28;20081;-82
2023/06/20 08:52:54;;;;;;;5.65;5.15;;;;;;;22.16;72.51;101038.50;5015822;28;19925;-82
2023/06/20 08:55:20;;;;;;;5.30;4.80;;;;;;;22.18;72.42;101033.88;5013254;28;20398;-82
2023/06/20 08:57:46;;;;;;;5.80;5.32;;;;;;;22.20;72.55;101042.56;4998097;28;20053;-82
2023/06/20 09:00:16;;;;;;;4.32;4.03;;;;;;;22.24;72.36;101032.47;4998934;28;20033;-82
2023/06/20 09:02:41;;;;;;;5.90;5.40;;;;;;;22.29;73.03;101029.47;5002962;28;20045;-82
2023/06/20 09:05:07;;;;;;;4.60;4.30;;;;;;;22.31;72.97;101028.34;4979973;28;20399;-82
2023/06/20 09:07:37;;;;;;;7.53;5.72;;;;;;;22.36;73.10;101030.63;5004953;28;20103;-82
2023/06/20 09:10:04;;;;;;;6.55;6.00;;;;;;;22.40;72.92;101027.53;5014223;28;20136;-82
2023/06/20 09:12:46;;;;;;;6.97;6.28;;;;;;;22.48;72.53;101026.00;5007913;28;20374;-82
2023/06/20 09:15:19;;;;;;;5.78;5.38;;;;;;;22.52;72.26;101022.94;4998935;28;20046;-82
2023/06/20 09:17:49;;;;;;;7.75;6.10;;;;;;;22.56;72.26;101024.34;4998124;28;20038;-82
2023/06/20 09:20:14;;;;;;;6.07;5.60;;;;;;;22.61;72.34;101024.78;5005329;28;20050;-79
2023/06/20 09:22:41;;;;;;;6.00;5.35;;;;;;;22.66;71.58;101026.22;5002583;28;20112;-79
2023/06/20 09:25:08;;;;;;;10.10;5.60;;;;;;;22.70;72.09;101027.63;4997249;28;20061;-79
2023/06/20 09:27:36;;;;;;;4.82;4.53;;;;;;;22.71;72.00;101032.81;4979703;28;20056;-79
2023/06/20 09:30:03;;;;;;;4.82;4.53;;;;;;;22.73;71.73;101032.69;4997523;28;20049;-79
2023/06/20 09:32:36;;;;;;;4.90;4.50;;;;;;;22.75;71.39;101033.38;4993724;28;20336;-79
2023/06/20 09:35:06;;;;;;;5.63;5.18;;;;;;;22.79;71.58;101027.66;4997856;28;20081;-79
2023/06/20 09:37:36;;;;;;;6.43;5.25;;;;;;;22.84;70.76;101035.22;4993809;28;20412;-79
2023/06/20 09:40:20;;;;;;;5.30;5.00;;;;;;;22.90;70.76;101031.16;4979045;28;20105;-79
2023/06/20 09:42:46;;;;;;;5.25;4.75;;;;;;;22.97;70.57;101040.31;4979849;28;20056;-79
2023/06/20 09:45:14;;;;;;;5.50;5.20;;;;;;;23.04;70.36;101032.59;5006293;28;20067;-79
2023/06/20 09:47:41;;;;;;;8.05;5.13;;;;;;;23.12;70.09;101035.44;5008099;28;20049;-79
2023/06/20 09:50:19;;;;;;;6.10;5.60;;;;;;;23.18;68.93;101025.06;5013677;28;20050;-79
2023/06/20 09:52:53;;;;;;;4.97;4.68;;;;;;;23.31;68.18;101029.28;4979810;28;20049;-80
2023/06/20 09:55:21;;;;;;;7.70;4.60;;;;;;;23.40;68.59;101043.63;4999177;28;20052;-79
2023/06/20 09:57:53;;;;;;;6.43;4.88;;;;;;;23.43;68.73;101032.63;4991247;28;20038;-79
2023/06/20 10:00:19;;;;;;;5.43;4.80;;;;;;;23.46;68.01;101011.81;5011246;28;20038;-79
2023/06/20 10:02:47;;;;;;;6.60;5.15;;;;;;;23.49;68.31;101016.88;4996296;28;20214;-79
2023/06/20 10:05:14;;;;;;;5.10;4.65;;;;;;;23.49;67.70;101016.88;4996321;28;20046;-79
2023/06/20 10:07:41;;;;;;;4.95;4.60;;;;;;;23.54;68.47;101016.47;4979298;28;20030;-79
2023/06/20 10:10:07;;;;;;;5.95;5.28;;;;;;;23.55;68.51;101016.31;4996071;28;20376;-79
2023/06/20 10:12:33;;;;;;;6.25;4.47;;;;;;;23.60;68.60;101010.53;4996530;28;20333;-79
2023/06/20 10:15:02;;;;;;;5.93;5.20;;;;;;;23.64;67.83;101003.09;4996017;28;20036;-79
2023/06/20 10:17:39;;;;;;;5.32;4.93;;;;;;;23.68;67.86;101007.16;4994931;28;20030;-79
2023/06/20 10:20:08;;;;;;;5.63;5.18;;;;;;;23.74;67.84;100999.41;5010682;28;20026;-79
2023/06/20 10:22:45;;;;;;;5.10;4.72;;;;;;;23.85;67.59;100997.56;4991609;28;20040;-79
2023/06/20 10:25:14;;;;;;;4.57;4.27;;;;;;;23.99;66.71;100985.56;4986994;28;20026;-79
2023/06/20 10:27:43;;;;;;;4.93;4.53;;;;;;;24.10;66.28;100991.59;5007624;28;20194;-79
2023/06/20 10:30:12;;;;;;;4.78;4.38;;;;;;;24.15;66.43;100985.78;4995555;28;20248;-79
2023/06/20 10:33:08;;;;;;;5.50;5.00;;;;;;;24.18;67.13;100984.66;4996222;28;20415;-79
2023/06/20 10:35:34;;;;;;;5.20;4.65;;;;;;;24.21;67.07;100989.69;4994392;28;20049;-79
2023/06/20 10:38:08;;;;;;;6.18;4.68;;;;;;;24.30;64.99;100987.00;4996313;28;20084;-79
2023/06/20 10:40:36;;;;;;;5.20;4.65;;;;;;;24.38;64.80;100986.25;4996285;28;20038;-79
2023/06/20 10:43:09;;;;;;;4.60;4.30;;;;;;;24.41;65.22;100972.53;5008677;28;20040;-79
2023/06/20 10:45:35;;;;;;;5.32;4.60;;;;;;;24.44;65.14;100988.31;4996447;28;20041;-79
2023/06/20 10:48:02;;;;;;;4.47;4.18;;;;;;;24.46;65.27;100978.28;4995780;28;20101;-79
2023/06/20 10:50:27;;;;;;;4.10;3.80;;;;;;;24.48;65.25;100973.63;4976361;28;20110;-79
2023/06/20 10:52:53;;;;;;;4.10;3.80;;;;;;;24.51;65.11;100967.16;4994837;28;20042;-79
2023/06/20 10:55:23;;;;;;;8.57;4.22;;;;;;;24.50;65.72;100955.59;4992886;28;20272;-79
2023/06/20 10:57:50;;;;;;;7.90;4.05;;;;;;;24.51;64.93;100959.94;4986585;28;20092;-79
2023/06/20 11:00:17;;;;;;;4.40;4.07;;;;;;;24.59;63.89;100953.03;4974155;28;20041;-79
2023/06/20 11:02:48;;;;;;;4.15;3.70;;;;;;;24.68;63.82;100957.47;4995527;28;20046;-79
2023/06/20 11:05:13;;;;;;;4.18;3.20;;;;;;;24.73;64.08;100941.81;4986891;28;20046;-79
2023/06/20 11:07:53;;;;;;;4.30;3.85;;;;;;;24.80;63.55;100942.03;4993734;28;20069;-79
2023/06/20 11:10:20;;;;;;;8.00;3.60;;;;;;;24.83;62.95;100944.41;4979452;28;20396;-79
2023/06/20 11:12:46;;;;;;;3.90;3.35;;;;;;;24.82;63.40;100932.03;4994118;28;20363;-79
2023/06/20 11:15:38;;;;;;;3.70;3.50;;;;;;;24.86;62.78;100930.72;4994846;28;20030;-79
2023/06/20 11:18:07;;;;;;;3.80;3.50;;;;;;;24.88;63.57;100934.06;4993752;28;20117;-79
2023/06/20 11:20:39;;;;;;;3.75;3.55;;;;;;;24.86;64.17;100936.06;4986904;28;20027;-79
2023/06/20 11:23:06;;;;;;;3.42;3.13;;;;;;;24.84;64.65;100940.75;4986121;28;20038;-79
2023/06/20 11:25:35;;;;;;;4.88;3.38;;;;;;;24.82;64.24;100945.41;4982593;28;20334;-79
2023/06/20 11:28:14;;;;;;;3.70;3.50;;;;;;;24.81;65.01;100943.72;4987116;28;20054;-79
2023/06/20 11:30:44;;;;;;;5.32;3.80;;;;;;;24.81;64.63;100943.72;4990110;28;20375;-79
2023/06/20 11:33:14;;;;;;;3.92;3.63;;;;;;;24.80;64.53;100950.91;4988474;28;20250;-79
2023/06/20 11:35:51;;;;;;;6.70;3.58;;;;;;;24.81;64.76;100959.78;4997960;28;20037;-79
2023/06/20 11:38:22;;;;;;;6.60;3.40;;;;;;;24.79;65.21;100957.25;4996817;28;20070;-79
2023/06/20 11:41:01;;;;;;;4.30;3.63;;;;;;;24.79;65.45;100961.78;4990921;28;20030;-79
2023/06/20 11:43:28;;;;;;;4.43;3.95;;;;;;;24.80;65.14;100966.16;4973617;28;20039;-79
2023/06/20 11:46:00;;;;;;;4.38;3.97;;;;;;;24.79;65.19;100967.97;4992719;28;20624;-79
2023/06/20 11:48:26;;;;;;;5.68;3.65;;;;;;;24.79;64.58;100972.47;4998486;28;20361;-79
2023/06/20 11:50:59;;;;;;;7.30;4.22;;;;;;;24.81;65.83;100967.81;4998109;28;20101;-79
2023/06/20 11:53:33;;;;;;;4.78;4.20;;;;;;;24.85;65.83;100967.38;5008271;28;20126;-79
2023/06/20 11:56:02;;;;;;;5.88;3.75;;;;;;;24.94;66.01;100972.78;4984038;28;20136;-80
2023/06/20 11:58:35;;;;;;;4.60;3.88;;;;;;;25.03;64.76;100970.06;4994197;28;20317;-80
2023/06/20 12:01:22;;;;;;;4.10;3.80;;;;;;;25.08;64.93;100964.22;4981545;28;20034;-80
2023/06/20 12:04:02;;;;;;;4.28;3.90;;;;;;;25.15;64.82;100961.78;4995388;28;20076;-80
2023/06/20 12:06:39;;;;;;;4.25;3.60;;;;;;;25.19;63.76;100941.69;5000901;28;20040;-79
2023/06/20 12:09:11;;;;;;;3.83;3.42;;;;;;;25.24;62.90;100934.06;4995965;28;20222;-79
2023/06/20 12:11:47;;;;;;;4.32;3.47;;;;;;;25.26;62.57;100940.94;5006552;28;20042;-79